AirNav   Air Wisconsin Up To $57,000 Bonus
 
 1428 users online  

MY76 Johnson's Sea Landing Seaplane Base
Tower, Minnesota, USA

GOING TO TOWER?


FAA INFORMATION EFFECTIVE 07 NOVEMBER 2019

Location

FAA Identifier: MY76
Lat/Long: 47-51-21.9400N 092-23-30.0300W
47-51.365667N 092-23.500500W
47.8560944,-92.3916750
(estimated)
Elevation: 1300 ft. / 396 m (estimated)
From city: 6 miles SE of TOWER, MN
Time zone: UTC -6 (UTC -5 during Daylight Saving Time)
Zip code: 55790

Seaplane Base Operations

Seaplane Base use: Private use. Permission required prior to landing
Activation date: 04/2007
Control tower: no
ARTCC: MINNEAPOLIS CENTER
FSS: PRINCETON FLIGHT SERVICE STATION
Attendance: UNATNDD
Segmented circle: no

Seaplane Base Communications

WX AWOS-3 at CQM (12 nm W): 118.175 (218-666-2539)

Nearby radio navigation aids

VOR radial/distance  VOR name  Freq  Var
ELOr275/22.7ELY VOR/DME109.6000E
EVMr008/26.4EVELETH VOR/DME108.2001E
HIBr019/35.6HIBBING VOR/DME110.8002E

 
NDB name  Hdg/Dist  Freq  Var  ID
ORR115/21.334102EORB --- .-. -...
SCOTT173/24.538501WSCG ... -.-. --.

Seaplane Base Services

Runway Information

Runway 9W/27W

Dimensions: 9000 x 1000 ft. / 2743 x 305 m
Surface: water
RUNWAY 9W  RUNWAY 27W
Traffic pattern: leftleft

Runway 4W/22W

Dimensions: 5600 x 1000 ft. / 1707 x 305 m
Surface: water
RUNWAY 4W  RUNWAY 22W
Traffic pattern: leftleft

Seaplane Base Ownership and Management from official FAA records

Ownership: Privately-owned
Owner: BRAIN L. JOHNSON
2139 BIRCH POINT RD
TOWER, MN 55790
Phone 218-753-5165
Manager: BRAIN L. JOHNSON
2139 BIRCH POINT RD
TOWER, MN 55790
Phone 218-753-5165

Seaplane Base Operational Statistics

Aircraft based on the field: 1
Single engine airplanes: 1
    

Additional Remarks

OWNER DESIRES ARPT NOT BE CHARTED.
FOR CD CTC MINNEAPOLIS ARTCC AT 651-463-5588.

Instrument Procedures

There are no published instrument procedures at MY76.

Some nearby airports with instrument procedures:

12D - Tower Municipal Airport (5 nm SE)
KCQM - Cook Municipal Airport (12 nm W)
KORB - Orr Regional Airport (21 nm NW)
KELO - Ely Municipal Airport (23 nm E)
KEVM - Eveleth-Virginia Municipal Airport (26 nm S)
 
Loc | Ops | Rwys | IFR | FBO | Links
Com | Nav | Svcs | Stats | Notes
Area around MY76 (Johnson's Sea Landing Seaplane Base)
 
Road maps at: MapQuest Bing Google
 
Aerial photo
No photo
 
Sectional chart

 
Airport distance calculator
Flying to Johnson's Sea Landing Seaplane Base? Find the distance to fly.

From to MY76

Sunrise and sunset
Times for 12-Nov-2019
 Local
(UTC-6)
 Zulu
(UTC)
Morning civil twilight06:3912:39
Sunrise07:1213:12
Sunset16:3522:35
Evening civil twilight17:0923:09

Current date and time
Zulu (UTC)  12-Nov-2019 20:50:51
Local (UTC-6)  12-Nov-2019 14:50:51
 
METAR
KCQM 
12nm W 
122035Z AUTO 16010G17KT 7SM CLR M10/M19 A3015 RMK AO2
KORB 
21nm NW 
122036Z AUTO 16011G18KT 10SM CLR M09/M21 A3012 RMK AO2
KELO 
23nm E 
122036Z AUTO 19008KT 10SM CLR M11/M22 A3017 RMK AO2
TAF
KHIB 
34nm SW 
121723Z 1218/1318 19007KT P6SM SKC FM122100 18010G17KT P6SM SKC FM130300 17009G18KT P6SM BKN250 FM131200 18005KT P6SM OVC027
NOTAMs
Click for the latest NOTAMs
NOTAMs are issued by the DoD/FAA and will open in a separate window not controlled by AirNav.

 

 
 

Would you like to see your business listed on this page?

 If your business provides an interesting product or service to pilots, flight crews, aircraft, or users of the Johnson's Sea Landing Seaplane Base, you should consider listing it here.  To start the listing process, click on the button below
 
Add a business
 

Other Pages about Johnson's Sea Landing Seaplane Base

Update a link
 
Copyright © AirNav, LLC. All rights reserved. Privacy Policy  Contact